createdAt,value
2023-05-16T00:00:27.028Z,99755.89
2023-05-16T00:05:34.710Z,99755.33
2023-05-16T00:10:41.855Z,99755.86
2023-05-16T00:15:48.922Z,99760.13
2023-05-16T00:20:56.302Z,99762.83
2023-05-16T00:26:03.821Z,99763.48
2023-05-16T00:31:11.025Z,99758.37
2023-05-16T00:36:18.035Z,99763.20
2023-05-16T00:41:27.485Z,99768.34
2023-05-16T00:46:34.514Z,99770.84
2023-05-16T00:51:41.792Z,99773.72
2023-05-16T00:56:48.991Z,99769.94
2023-05-16T01:01:56.950Z,99778.00
2023-05-16T01:07:04.283Z,99782.13
2023-05-16T01:12:22.844Z,99782.98
2023-05-16T01:17:38.137Z,99787.40
2023-05-16T01:23:15.344Z,99790.26
2023-05-16T01:28:24.260Z,99796.48
2023-05-16T01:33:31.401Z,99795.08
2023-05-16T01:38:45.840Z,99795.66
2023-05-16T01:43:58.116Z,99804.67
2023-05-16T01:49:17.375Z,99812.40
2023-05-16T01:54:28.068Z,99807.58
2023-05-16T01:59:35.790Z,99808.74
2023-05-16T02:04:42.959Z,99810.34
2023-05-16T02:09:50.077Z,99813.70
2023-05-16T02:14:57.138Z,99817.99
2023-05-16T02:20:07.250Z,99825.71
2023-05-16T02:25:15.600Z,99832.80
2023-05-16T02:30:22.691Z,99841.94
2023-05-16T02:35:29.898Z,99851.07
2023-05-16T02:40:36.999Z,99864.98
2023-05-16T02:45:44.032Z,99871.40
2023-05-16T02:50:52.268Z,99875.41
2023-05-16T02:55:59.472Z,99875.31
2023-05-16T03:01:06.846Z,99882.03
2023-05-16T03:06:13.977Z,99890.19
2023-05-16T03:11:21.933Z,99894.09
2023-05-16T03:16:29.395Z,99900.20
2023-05-16T03:21:36.470Z,99908.73
2023-05-16T03:26:43.444Z,99915.29
2023-05-16T03:31:51.430Z,99926.66
2023-05-16T03:36:58.962Z,99935.13
2023-05-16T03:42:07.686Z,99935.27
2023-05-16T03:47:15.098Z,99936.55
2023-05-16T03:52:22.383Z,99944.63
2023-05-16T03:57:29.632Z,99954.27
2023-05-16T04:02:36.898Z,99955.34
2023-05-16T04:07:45.038Z,99961.34
2023-05-16T04:12:52.858Z,99954.25
2023-05-16T04:17:58.356Z,99960.05
2023-05-16T04:23:05.825Z,99969.17
2023-05-16T04:28:12.901Z,99979.73
2023-05-16T04:33:20.298Z,99997.45
2023-05-16T04:38:27.457Z,100013.63
2023-05-16T04:43:34.622Z,100028.67
2023-05-16T04:48:41.719Z,100031.42
2023-05-16T04:53:48.998Z,100041.15
2023-05-16T04:58:56.583Z,100054.75
2023-05-16T05:04:03.883Z,100059.18
2023-05-16T05:09:11.220Z,100063.88
2023-05-16T05:14:18.269Z,100075.83
2023-05-16T05:19:25.535Z,100091.22
2023-05-16T05:24:32.815Z,100106.38
2023-05-16T05:29:40.426Z,100117.34
2023-05-16T05:34:47.902Z,100126.54
2023-05-16T05:39:55.301Z,100136.70
2023-05-16T05:45:02.495Z,100141.65
2023-05-16T05:50:13.025Z,100148.39
2023-05-16T05:55:20.125Z,100153.02
2023-05-16T06:00:29.447Z,100155.69
2023-05-16T06:05:36.739Z,100153.80
2023-05-16T06:10:43.878Z,100158.19
2023-05-16T06:15:54.420Z,100162.08
2023-05-16T06:21:01.469Z,100167.02
2023-05-16T06:26:09.183Z,100170.29
2023-05-16T06:31:16.360Z,100175.70
2023-05-16T06:36:23.451Z,100189.16
2023-05-16T06:41:30.624Z,100209.27
2023-05-16T06:46:38.487Z,100222.11
2023-05-16T06:51:45.912Z,100222.70
2023-05-16T06:56:55.873Z,100233.92
2023-05-16T07:02:03.128Z,100249.98
2023-05-16T07:07:11.562Z,100256.89
2023-05-16T07:12:24.742Z,100268.48
2023-05-16T07:17:33.616Z,100280.55
2023-05-16T07:22:40.876Z,100286.70
2023-05-16T07:27:48.148Z,100291.01
2023-05-16T07:32:55.518Z,100301.95
2023-05-16T07:38:03.302Z,100313.55
2023-05-16T07:43:13.085Z,100320.98
2023-05-16T07:48:20.290Z,100340.17
2023-05-16T07:53:27.725Z,100358.77
2023-05-16T07:58:35.212Z,100379.24
2023-05-16T08:03:42.436Z,100389.50
2023-05-16T08:08:49.598Z,100390.69
2023-05-16T08:13:58.476Z,100395.17
2023-05-16T08:19:06.037Z,100398.25
2023-05-16T08:24:13.397Z,100395.59
2023-05-16T08:29:20.702Z,100390.80
2023-05-16T08:34:27.874Z,100377.52
2023-05-16T08:39:35.184Z,100368.91
2023-05-16T08:44:42.402Z,100374.04
2023-05-16T08:49:52.687Z,100385.56
2023-05-16T08:55:10.929Z,100395.95
2023-05-16T09:00:20.814Z,100395.00
2023-05-16T09:05:29.089Z,100387.64
2023-05-16T09:10:36.471Z,100392.46
2023-05-16T09:15:43.708Z,100397.35
2023-05-16T09:20:53.644Z,100394.97
2023-05-16T09:26:02.032Z,100397.88
2023-05-16T09:31:23.224Z,100392.05
2023-05-16T09:36:30.697Z,100395.41
2023-05-16T09:41:40.485Z,100403.97
2023-05-16T09:46:47.868Z,100407.90
2023-05-16T09:51:53.662Z,100413.33
2023-05-16T09:57:02.960Z,100421.13
2023-05-16T10:02:12.424Z,100430.17
2023-05-16T10:07:20.846Z,100422.08
2023-05-16T10:12:31.930Z,100423.66
2023-05-16T10:17:43.507Z,100432.03
2023-05-16T10:22:54.171Z,100439.85
2023-05-16T10:28:02.667Z,100463.02
2023-05-16T10:33:10.354Z,100476.38
2023-05-16T10:38:19.439Z,100468.45
2023-05-16T10:43:31.246Z,100466.77
2023-05-16T10:48:40.081Z,100463.28
2023-05-16T10:53:48.259Z,100465.53
2023-05-16T10:58:57.065Z,100468.56
2023-05-16T11:04:08.706Z,100471.42
2023-05-16T11:09:29.419Z,100474.48
2023-05-16T11:14:43.751Z,100483.59
2023-05-16T11:19:52.384Z,100486.05
2023-05-16T11:25:01.593Z,100495.71
2023-05-16T11:30:17.795Z,100499.46
2023-05-16T11:35:26.388Z,100504.30
2023-05-16T11:40:35.181Z,100515.52
2023-05-16T11:45:42.926Z,100523.71
2023-05-16T11:50:50.698Z,100521.17
2023-05-16T11:56:00.465Z,100530.06
2023-05-16T12:01:08.648Z,100530.81
2023-05-16T12:06:16.737Z,100535.32
2023-05-16T12:11:26.069Z,100545.66
2023-05-16T12:16:33.957Z,100554.34
2023-05-16T12:21:41.576Z,100558.02
2023-05-16T12:26:47.621Z,100567.52
2023-05-16T12:31:56.161Z,100573.11
2023-05-16T12:37:03.276Z,100577.90
2023-05-16T12:42:13.711Z,100584.36
2023-05-16T12:47:21.629Z,100582.27
2023-05-16T12:52:32.046Z,100581.27
2023-05-16T12:57:39.388Z,100584.20
2023-05-16T13:02:45.092Z,100589.36
2023-05-16T13:07:52.881Z,100587.18
2023-05-16T13:13:00.511Z,100589.12
2023-05-16T13:18:08.071Z,100598.50
2023-05-16T13:23:13.942Z,100604.64
2023-05-16T13:28:21.398Z,100610.40
2023-05-16T13:33:28.659Z,100616.26
2023-05-16T13:38:36.390Z,100623.61
2023-05-16T13:43:44.533Z,100629.95
2023-05-16T13:48:51.903Z,100630.78
2023-05-16T13:54:01.422Z,100639.29
2023-05-16T13:59:09.717Z,100642.83
2023-05-16T14:04:18.814Z,100637.46
2023-05-16T14:09:25.948Z,100627.36
2023-05-16T14:14:33.283Z,100615.35
2023-05-16T14:19:40.471Z,100617.43
2023-05-16T14:24:47.684Z,100624.27
2023-05-16T14:29:54.823Z,100627.36
2023-05-16T14:35:01.991Z,100631.15
2023-05-16T14:40:10.978Z,100636.62
2023-05-16T14:45:18.206Z,100640.04
2023-05-16T14:50:25.305Z,100645.05
2023-05-16T14:55:32.490Z,100644.55
2023-05-16T15:00:39.704Z,100644.08
2023-05-16T15:05:47.135Z,100647.18
2023-05-16T15:10:54.340Z,100645.52
2023-05-16T15:16:01.867Z,100644.90
2023-05-16T15:21:09.399Z,100646.73
2023-05-16T15:26:16.550Z,100659.62
2023-05-16T15:31:23.840Z,100667.00
2023-05-16T15:36:31.236Z,100660.88
2023-05-16T15:42:05.330Z,100667.50
2023-05-16T15:47:09.538Z,100667.70
2023-05-16T15:52:16.765Z,100662.23
2023-05-16T15:57:24.601Z,100666.66
2023-05-16T16:02:32.361Z,100671.98
2023-05-16T16:07:39.564Z,100679.27
2023-05-16T16:12:59.163Z,100689.92
2023-05-16T16:18:07.073Z,100692.14
2023-05-16T16:23:14.181Z,100697.30
2023-05-16T16:28:22.557Z,100698.42
2023-05-16T16:33:31.005Z,100702.48
2023-05-16T16:38:38.093Z,100697.52
2023-05-16T16:43:45.425Z,100701.09
2023-05-16T16:48:53.257Z,100701.23
2023-05-16T16:54:00.341Z,100702.11
2023-05-16T16:59:07.881Z,100706.62
2023-05-16T17:04:15.089Z,100715.93
2023-05-16T17:09:25.448Z,100722.83
2023-05-16T17:14:35.243Z,100727.20
2023-05-16T17:19:42.404Z,100737.65
2023-05-16T17:24:49.661Z,100744.27
2023-05-16T17:29:57.415Z,100752.36
2023-05-16T17:35:04.256Z,100758.41
2023-05-16T17:40:17.254Z,100762.55
2023-05-16T17:45:24.666Z,100772.10
2023-05-16T17:50:32.805Z,100781.27
2023-05-16T17:55:39.992Z,100784.52
2023-05-16T18:00:48.714Z,100789.23
2023-05-16T18:05:56.162Z,100791.35
2023-05-16T18:11:03.314Z,100794.04
2023-05-16T18:16:12.478Z,100802.45
2023-05-16T18:21:20.100Z,100812.52
2023-05-16T18:26:27.438Z,100817.06
2023-05-16T18:31:36.965Z,100826.92
2023-05-16T18:36:44.197Z,100831.04
2023-05-16T18:41:51.333Z,100831.70
2023-05-16T18:46:58.982Z,100836.09
2023-05-16T18:52:07.462Z,100846.45
2023-05-16T18:57:14.669Z,100852.70
2023-05-16T19:02:30.197Z,100859.52
2023-05-16T19:07:41.490Z,100871.56
2023-05-16T19:12:49.329Z,100874.60
2023-05-16T19:17:56.666Z,100872.79
2023-05-16T19:23:04.522Z,100871.45
2023-05-16T19:28:10.316Z,100870.48
2023-05-16T19:33:20.780Z,100872.67
2023-05-16T19:38:28.267Z,100878.14
2023-05-16T19:43:35.767Z,100885.50
2023-05-16T19:48:49.242Z,100886.04
2023-05-16T19:53:57.874Z,100893.16
2023-05-16T19:59:10.258Z,100892.98
2023-05-16T20:04:18.123Z,100897.27
2023-05-16T20:09:28.867Z,100899.64
2023-05-16T20:14:37.752Z,100897.84
2023-05-16T20:19:45.730Z,100897.27
2023-05-16T20:24:54.513Z,100891.35
2023-05-16T20:30:07.676Z,100891.10
2023-05-16T20:35:18.297Z,100894.09
2023-05-16T20:40:25.611Z,100891.55
2023-05-16T20:45:33.353Z,100891.81
2023-05-16T20:50:41.040Z,100896.23
2023-05-16T20:55:48.108Z,100900.77
2023-05-16T21:00:58.335Z,100899.19
2023-05-16T21:06:05.756Z,100904.95
2023-05-16T21:11:13.055Z,100903.98
2023-05-16T21:16:20.150Z,100904.57
2023-05-16T21:21:27.249Z,100904.78
2023-05-16T21:26:35.802Z,100911.58
2023-05-16T21:31:42.985Z,100915.79
2023-05-16T21:36:50.302Z,100911.91
2023-05-16T21:41:57.353Z,100908.77
2023-05-16T21:47:04.425Z,100908.85
2023-05-16T21:52:11.676Z,100910.23
2023-05-16T21:57:18.939Z,100912.05
2023-05-16T22:02:26.126Z,100915.77
2023-05-16T22:07:33.366Z,100911.42
2023-05-16T22:12:40.941Z,100914.45
2023-05-16T22:17:48.314Z,100917.90
2023-05-16T22:22:55.619Z,100918.71
2023-05-16T22:28:02.669Z,100925.11
2023-05-16T22:33:10.009Z,100930.73
2023-05-16T22:38:17.336Z,100934.39
2023-05-16T22:43:24.504Z,100939.66
2023-05-16T22:48:31.828Z,100939.93
2023-05-16T22:53:39.061Z,100947.02
2023-05-16T22:58:46.206Z,100952.02
2023-05-16T23:03:53.283Z,100954.19
2023-05-16T23:09:02.452Z,100950.30
2023-05-16T23:14:09.688Z,100946.73
2023-05-16T23:19:17.204Z,100949.36
2023-05-16T23:24:25.353Z,100952.49
2023-05-16T23:29:32.445Z,100951.83
2023-05-16T23:34:39.634Z,100950.85
2023-05-16T23:39:46.711Z,100950.65
2023-05-16T23:44:53.838Z,100949.14
2023-05-16T23:50:00.890Z,100951.09
2023-05-16T23:55:09.234Z,100961.21
